Terminal Aerodrome Forecast
Issued by NWS

Home | Current Version | Previous Version | Text Only | Print | Product List | Glossary On
Versions: 1 2 3 4 5 6 7 8 9 10 11 12 13 14 15 16 17 18
000
FTUS45 KLKN 241100
TAFWMC
TAF
KWMC 241120Z 2412/2512 26006KT P6SM SCT070 BKN100
     FM241800 24015G25KT P6SM VCSH OVC070
     FM250300 25007KT P6SM -SHRA OVC050=

USA.gov is the U.S. government's official web portal to all federal, state and local government web resources and services.